sensor_id;sensor_type;location;lat;lon;timestamp;P1;durP1;ratioP1;P2;durP2;ratioP2
13012;SDS011;22580;57.670;12.006;2024-03-23T00:52:56;2.17;;;1.10;;
13012;SDS011;22580;57.670;12.006;2024-03-23T00:55:22;1.57;;;0.67;;
13012;SDS011;22580;57.670;12.006;2024-03-23T00:57:49;2.97;;;1.00;;
13012;SDS011;22580;57.670;12.006;2024-03-23T01:00:15;2.63;;;0.90;;
13012;SDS011;22580;57.670;12.006;2024-03-23T01:02:42;2.10;;;0.90;;
13012;SDS011;22580;57.670;12.006;2024-03-23T01:05:09;2.13;;;0.60;;
13012;SDS011;22580;57.670;12.006;2024-03-23T01:07:36;1.90;;;0.73;;
13012;SDS011;22580;57.670;12.006;2024-03-23T01:10:03;1.57;;;0.83;;
13012;SDS011;22580;57.670;12.006;2024-03-23T01:12:31;4.83;;;1.17;;
13012;SDS011;22580;57.670;12.006;2024-03-23T01:14:56;2.40;;;1.13;;
13012;SDS011;22580;57.670;12.006;2024-03-23T01:17:23;4.00;;;1.23;;
13012;SDS011;22580;57.670;12.006;2024-03-23T01:19:49;3.73;;;1.10;;
13012;SDS011;22580;57.670;12.006;2024-03-23T01:22:17;3.40;;;1.47;;
13012;SDS011;22580;57.670;12.006;2024-03-23T01:24:43;3.17;;;1.50;;
13012;SDS011;22580;57.670;12.006;2024-03-23T01:27:12;3.77;;;1.37;;
13012;SDS011;22580;57.670;12.006;2024-03-23T01:29:38;3.57;;;1.20;;
13012;SDS011;22580;57.670;12.006;2024-03-23T01:32:05;2.17;;;1.17;;
13012;SDS011;22580;57.670;12.006;2024-03-23T01:34:32;3.57;;;1.13;;
13012;SDS011;22580;57.670;12.006;2024-03-23T01:36:59;2.30;;;0.90;;
13012;SDS011;22580;57.670;12.006;2024-03-23T01:39:25;1.40;;;0.77;;
13012;SDS011;22580;57.670;12.006;2024-03-23T01:41:51;1.97;;;1.00;;
13012;SDS011;22580;57.670;12.006;2024-03-23T01:44:19;1.73;;;0.70;;
13012;SDS011;22580;57.670;12.006;2024-03-23T01:46:46;2.90;;;1.10;;
13012;SDS011;22580;57.670;12.006;2024-03-23T01:49:12;1.43;;;0.80;;
13012;SDS011;22580;57.670;12.006;2024-03-23T01:51:39;1.40;;;1.07;;
13012;SDS011;22580;57.670;12.006;2024-03-23T01:54:06;0.90;;;0.70;;
13012;SDS011;22580;57.670;12.006;2024-03-23T01:56:34;1.60;;;0.73;;
13012;SDS011;22580;57.670;12.006;2024-03-23T01:59:00;2.10;;;0.80;;
13012;SDS011;22580;57.670;12.006;2024-03-23T02:01:29;1.00;;;0.80;;
13012;SDS011;22580;57.670;12.006;2024-03-23T02:03:55;2.83;;;1.00;;
13012;SDS011;22580;57.670;12.006;2024-03-23T02:06:22;1.40;;;0.90;;
13012;SDS011;22580;57.670;12.006;2024-03-23T02:08:48;1.80;;;0.83;;
13012;SDS011;22580;57.670;12.006;2024-03-23T02:11:15;2.37;;;0.90;;
13012;SDS011;22580;57.670;12.006;2024-03-23T02:13:41;1.33;;;0.70;;
13012;SDS011;22580;57.670;12.006;2024-03-23T02:16:08;1.27;;;0.70;;
13012;SDS011;22580;57.670;12.006;2024-03-23T02:18:36;0.50;;;0.47;;
13012;SDS011;22580;57.670;12.006;2024-03-23T02:21:03;1.03;;;0.53;;
13012;SDS011;22580;57.670;12.006;2024-03-23T02:23:31;1.67;;;0.60;;
13012;SDS011;22580;57.670;12.006;2024-03-23T02:25:57;1.83;;;1.33;;
13012;SDS011;22580;57.670;12.006;2024-03-23T02:28:23;3.03;;;1.13;;
13012;SDS011;22580;57.670;12.006;2024-03-23T02:30:50;1.23;;;0.83;;
13012;SDS011;22580;57.670;12.006;2024-03-23T02:33:16;1.10;;;0.90;;
13012;SDS011;22580;57.670;12.006;2024-03-23T02:35:43;2.17;;;1.07;;
13012;SDS011;22580;57.670;12.006;2024-03-23T02:38:09;4.43;;;1.10;;
13012;SDS011;22580;57.670;12.006;2024-03-23T02:40:37;2.03;;;1.20;;
13012;SDS011;22580;57.670;12.006;2024-03-23T02:43:03;1.47;;;0.60;;
13012;SDS011;22580;57.670;12.006;2024-03-23T02:45:31;0.50;;;0.50;;
13012;SDS011;22580;57.670;12.006;2024-03-23T02:47:57;0.60;;;0.60;;
13012;SDS011;22580;57.670;12.006;2024-03-23T02:50:23;0.87;;;0.50;;
13012;SDS011;22580;57.670;12.006;2024-03-23T02:52:49;1.50;;;0.60;;
13012;SDS011;22580;57.670;12.006;2024-03-23T02:55:16;2.83;;;0.90;;
13012;SDS011;22580;57.670;12.006;2024-03-23T02:57:44;2.97;;;1.27;;
13012;SDS011;22580;57.670;12.006;2024-03-23T03:00:11;2.03;;;1.00;;
13012;SDS011;22580;57.670;12.006;2024-03-23T03:02:38;1.67;;;0.70;;
13012;SDS011;22580;57.670;12.006;2024-03-23T03:05:05;2.00;;;0.73;;
13012;SDS011;22580;57.670;12.006;2024-03-23T03:07:31;2.30;;;0.80;;
13012;SDS011;22580;57.670;12.006;2024-03-23T03:09:58;2.43;;;1.00;;
13012;SDS011;22580;57.670;12.006;2024-03-23T03:12:24;2.60;;;0.90;;
13012;SDS011;22580;57.670;12.006;2024-03-23T03:14:53;1.67;;;0.80;;
13012;SDS011;22580;57.670;12.006;2024-03-23T03:17:19;0.67;;;0.43;;
13012;SDS011;22580;57.670;12.006;2024-03-23T03:19:46;1.83;;;0.73;;
13012;SDS011;22580;57.670;12.006;2024-03-23T03:22:12;1.73;;;1.00;;
13012;SDS011;22580;57.670;12.006;2024-03-23T03:24:39;1.60;;;0.73;;
13012;SDS011;22580;57.670;12.006;2024-03-23T03:27:05;1.70;;;1.20;;
13012;SDS011;22580;57.670;12.006;2024-03-23T03:29:33;2.33;;;0.93;;
13012;SDS011;22580;57.670;12.006;2024-03-23T03:32:02;1.00;;;0.83;;
13012;SDS011;22580;57.670;12.006;2024-03-23T03:34:30;1.13;;;0.80;;
13012;SDS011;22580;57.670;12.006;2024-03-23T03:36:56;2.03;;;0.90;;
13012;SDS011;22580;57.670;12.006;2024-03-23T03:39:24;1.20;;;0.90;;
13012;SDS011;22580;57.670;12.006;2024-03-23T03:41:50;1.23;;;0.80;;
13012;SDS011;22580;57.670;12.006;2024-03-23T03:44:17;0.90;;;0.80;;
13012;SDS011;22580;57.670;12.006;2024-03-23T03:46:43;0.47;;;0.40;;
13012;SDS011;22580;57.670;12.006;2024-03-23T03:49:11;0.70;;;0.47;;
13012;SDS011;22580;57.670;12.006;2024-03-23T03:51:37;1.77;;;0.67;;
13012;SDS011;22580;57.670;12.006;2024-03-23T03:54:04;1.53;;;0.70;;
13012;SDS011;22580;57.670;12.006;2024-03-23T03:56:30;0.40;;;0.40;;
13012;SDS011;22580;57.670;12.006;2024-03-23T03:58:57;1.93;;;1.10;;
13012;SDS011;22580;57.670;12.006;2024-03-23T04:01:23;1.33;;;0.60;;
13012;SDS011;22580;57.670;12.006;2024-03-23T04:03:50;0.80;;;0.80;;
13012;SDS011;22580;57.670;12.006;2024-03-23T04:06:20;1.33;;;0.70;;
13012;SDS011;22580;57.670;12.006;2024-03-23T04:08:47;2.43;;;0.83;;
13012;SDS011;22580;57.670;12.006;2024-03-23T04:11:13;1.30;;;0.60;;
13012;SDS011;22580;57.670;12.006;2024-03-23T04:13:40;1.23;;;0.50;;
13012;SDS011;22580;57.670;12.006;2024-03-23T04:16:06;1.07;;;0.50;;
13012;SDS011;22580;57.670;12.006;2024-03-23T04:18:34;0.40;;;0.40;;
13012;SDS011;22580;57.670;12.006;2024-03-23T04:21:00;2.20;;;0.90;;
13012;SDS011;22580;57.670;12.006;2024-03-23T04:23:29;1.37;;;0.70;;
13012;SDS011;22580;57.670;12.006;2024-03-23T04:25:55;1.50;;;0.70;;
13012;SDS011;22580;57.670;12.006;2024-03-23T04:28:22;1.47;;;0.60;;
13012;SDS011;22580;57.670;12.006;2024-03-23T04:30:47;0.93;;;0.70;;
13012;SDS011;22580;57.670;12.006;2024-03-23T04:33:14;2.37;;;0.60;;
13012;SDS011;22580;57.670;12.006;2024-03-23T04:35:42;0.90;;;0.70;;
13012;SDS011;22580;57.670;12.006;2024-03-23T04:38:09;0.73;;;0.53;;
13012;SDS011;22580;57.670;12.006;2024-03-23T04:40:37;0.80;;;0.50;;
13012;SDS011;22580;57.670;12.006;2024-03-23T04:43:04;0.97;;;0.60;;
13012;SDS011;22580;57.670;12.006;2024-03-23T04:45:31;1.17;;;0.60;;
13012;SDS011;22580;57.670;12.006;2024-03-23T04:47:58;1.30;;;0.70;;
13012;SDS011;22580;57.670;12.006;2024-03-23T04:50:25;2.03;;;0.80;;
13012;SDS011;22580;57.670;12.006;2024-03-23T04:52:52;2.40;;;0.90;;
13012;SDS011;22580;57.670;12.006;2024-03-23T04:55:18;1.37;;;0.70;;
13012;SDS011;22580;57.670;12.006;2024-03-23T04:57:49;0.77;;;0.53;;
13012;SDS011;22580;57.670;12.006;2024-03-23T05:00:14;0.73;;;0.50;;
13012;SDS011;22580;57.670;12.006;2024-03-23T05:02:50;1.70;;;0.60;;
13012;SDS011;22580;57.670;12.006;2024-03-23T05:05:16;0.70;;;0.63;;
13012;SDS011;22580;57.670;12.006;2024-03-23T05:07:43;0.50;;;0.50;;
13012;SDS011;22580;57.670;12.006;2024-03-23T05:10:09;0.67;;;0.33;;
13012;SDS011;22580;57.670;12.006;2024-03-23T05:12:36;0.70;;;0.50;;
13012;SDS011;22580;57.670;12.006;2024-03-23T05:15:04;1.23;;;0.50;;
13012;SDS011;22580;57.670;12.006;2024-03-23T05:17:31;0.67;;;0.60;;
13012;SDS011;22580;57.670;12.006;2024-03-23T05:19:57;1.57;;;0.60;;
13012;SDS011;22580;57.670;12.006;2024-03-23T05:22:24;1.53;;;0.67;;
13012;SDS011;22580;57.670;12.006;2024-03-23T05:24:52;0.80;;;0.57;;
13012;SDS011;22580;57.670;12.006;2024-03-23T05:27:18;0.43;;;0.43;;
13012;SDS011;22580;57.670;12.006;2024-03-23T05:29:45;1.73;;;0.40;;
13012;SDS011;22580;57.670;12.006;2024-03-23T05:32:14;1.23;;;0.57;;
13012;SDS011;22580;57.670;12.006;2024-03-23T05:34:41;1.30;;;0.50;;
13012;SDS011;22580;57.670;12.006;2024-03-23T05:37:06;0.50;;;0.50;;
13012;SDS011;22580;57.670;12.006;2024-03-23T05:39:33;3.90;;;1.07;;
13012;SDS011;22580;57.670;12.006;2024-03-23T05:41:59;1.33;;;0.60;;
13012;SDS011;22580;57.670;12.006;2024-03-23T05:44:26;2.83;;;1.27;;
13012;SDS011;22580;57.670;12.006;2024-03-23T05:46:52;1.77;;;1.10;;
13012;SDS011;22580;57.670;12.006;2024-03-23T05:49:20;1.97;;;1.07;;
13012;SDS011;22580;57.670;12.006;2024-03-23T05:51:46;4.17;;;1.13;;
13012;SDS011;22580;57.670;12.006;2024-03-23T05:54:13;4.00;;;1.23;;
13012;SDS011;22580;57.670;12.006;2024-03-23T05:56:39;1.97;;;0.90;;
13012;SDS011;22580;57.670;12.006;2024-03-23T05:59:08;4.27;;;1.20;;
13012;SDS011;22580;57.670;12.006;2024-03-23T06:01:34;1.43;;;0.73;;
13012;SDS011;22580;57.670;12.006;2024-03-23T06:04:01;1.93;;;0.73;;
13012;SDS011;22580;57.670;12.006;2024-03-23T06:06:28;3.47;;;1.10;;
13012;SDS011;22580;57.670;12.006;2024-03-23T06:08:56;0.97;;;0.70;;
13012;SDS011;22580;57.670;12.006;2024-03-23T06:11:22;1.90;;;0.90;;
13012;SDS011;22580;57.670;12.006;2024-03-23T06:13:49;2.23;;;1.10;;
13012;SDS011;22580;57.670;12.006;2024-03-23T06:16:14;2.70;;;1.20;;
13012;SDS011;22580;57.670;12.006;2024-03-23T06:18:41;2.13;;;0.90;;
13012;SDS011;22580;57.670;12.006;2024-03-23T06:21:12;2.50;;;0.90;;
13012;SDS011;22580;57.670;12.006;2024-03-23T06:23:41;1.63;;;0.80;;
13012;SDS011;22580;57.670;12.006;2024-03-23T06:26:07;1.33;;;0.80;;
13012;SDS011;22580;57.670;12.006;2024-03-23T06:28:35;2.00;;;0.70;;
13012;SDS011;22580;57.670;12.006;2024-03-23T06:31:01;4.00;;;1.43;;
13012;SDS011;22580;57.670;12.006;2024-03-23T06:33:28;4.00;;;1.23;;
13012;SDS011;22580;57.670;12.006;2024-03-23T06:35:54;2.10;;;0.80;;
13012;SDS011;22580;57.670;12.006;2024-03-23T06:38:21;2.70;;;1.23;;
13012;SDS011;22580;57.670;12.006;2024-03-23T06:40:48;4.13;;;1.50;;
13012;SDS011;22580;57.670;12.006;2024-03-23T06:43:17;3.00;;;1.30;;
13012;SDS011;22580;57.670;12.006;2024-03-23T06:45:43;3.70;;;1.10;;
13012;SDS011;22580;57.670;12.006;2024-03-23T06:48:10;4.70;;;1.30;;
13012;SDS011;22580;57.670;12.006;2024-03-23T06:50:37;1.73;;;0.90;;
13012;SDS011;22580;57.670;12.006;2024-03-23T06:53:04;3.67;;;1.20;;
13012;SDS011;22580;57.670;12.006;2024-03-23T06:55:30;1.77;;;0.70;;
13012;SDS011;22580;57.670;12.006;2024-03-23T06:57:59;1.97;;;0.90;;
13012;SDS011;22580;57.670;12.006;2024-03-23T07:00:25;2.37;;;1.00;;
13012;SDS011;22580;57.670;12.006;2024-03-23T07:02:53;3.50;;;1.43;;
13012;SDS011;22580;57.670;12.006;2024-03-23T07:05:19;4.03;;;1.47;;
13012;SDS011;22580;57.670;12.006;2024-03-23T07:07:46;3.37;;;1.13;;
13012;SDS011;22580;57.670;12.006;2024-03-23T07:10:12;5.33;;;1.70;;
13012;SDS011;22580;57.670;12.006;2024-03-23T07:12:39;2.53;;;1.33;;
13012;SDS011;22580;57.670;12.006;2024-03-23T07:15:07;2.77;;;1.00;;
13012;SDS011;22580;57.670;12.006;2024-03-23T07:17:34;3.23;;;1.50;;
13012;SDS011;22580;57.670;12.006;2024-03-23T07:20:00;4.93;;;1.43;;
13012;SDS011;22580;57.670;12.006;2024-03-23T07:22:29;1.67;;;1.10;;
13012;SDS011;22580;57.670;12.006;2024-03-23T07:24:55;1.97;;;0.90;;
13012;SDS011;22580;57.670;12.006;2024-03-23T07:27:21;2.43;;;1.10;;
13012;SDS011;22580;57.670;12.006;2024-03-23T07:29:48;2.90;;;1.10;;
13012;SDS011;22580;57.670;12.006;2024-03-23T07:32:21;1.90;;;0.90;;
13012;SDS011;22580;57.670;12.006;2024-03-23T07:34:47;3.83;;;1.10;;
13012;SDS011;22580;57.670;12.006;2024-03-23T07:37:14;2.27;;;1.00;;
13012;SDS011;22580;57.670;12.006;2024-03-23T07:39:40;2.43;;;1.00;;
13012;SDS011;22580;57.670;12.006;2024-03-23T07:42:07;4.60;;;1.60;;
13012;SDS011;22580;57.670;12.006;2024-03-23T07:44:33;4.43;;;1.00;;
13012;SDS011;22580;57.670;12.006;2024-03-23T07:47:00;3.27;;;1.20;;
13012;SDS011;22580;57.670;12.006;2024-03-23T07:49:28;2.03;;;1.00;;
13012;SDS011;22580;57.670;12.006;2024-03-23T07:51:55;2.07;;;0.90;;
13012;SDS011;22580;57.670;12.006;2024-03-23T07:54:21;2.63;;;1.40;;
13012;SDS011;22580;57.670;12.006;2024-03-23T07:56:48;2.17;;;1.10;;
13012;SDS011;22580;57.670;12.006;2024-03-23T07:59:14;5.53;;;1.87;;
13012;SDS011;22580;57.670;12.006;2024-03-23T08:01:40;4.93;;;1.30;;
13012;SDS011;22580;57.670;12.006;2024-03-23T08:04:06;1.67;;;0.90;;
13012;SDS011;22580;57.670;12.006;2024-03-23T08:06:35;6.10;;;2.00;;
13012;SDS011;22580;57.670;12.006;2024-03-23T08:09:01;4.90;;;1.33;;
13012;SDS011;22580;57.670;12.006;2024-03-23T08:11:28;4.10;;;1.70;;
13012;SDS011;22580;57.670;12.006;2024-03-23T08:13:54;2.03;;;1.27;;
13012;SDS011;22580;57.670;12.006;2024-03-23T08:16:22;3.70;;;1.60;;
13012;SDS011;22580;57.670;12.006;2024-03-23T08:18:48;3.70;;;1.13;;
13012;SDS011;22580;57.670;12.006;2024-03-23T08:21:17;2.00;;;1.00;;
13012;SDS011;22580;57.670;12.006;2024-03-23T08:23:45;3.27;;;1.20;;
13012;SDS011;22580;57.670;12.006;2024-03-23T08:26:12;4.03;;;1.33;;
13012;SDS011;22580;57.670;12.006;2024-03-23T08:28:41;2.37;;;1.10;;
13012;SDS011;22580;57.670;12.006;2024-03-23T08:31:08;1.53;;;1.00;;
13012;SDS011;22580;57.670;12.006;2024-03-23T08:33:38;3.57;;;1.27;;
13012;SDS011;22580;57.670;12.006;2024-03-23T08:36:09;2.37;;;1.30;;
13012;SDS011;22580;57.670;12.006;2024-03-23T08:38:40;2.10;;;0.97;;
13012;SDS011;22580;57.670;12.006;2024-03-23T08:41:09;3.20;;;1.00;;
13012;SDS011;22580;57.670;12.006;2024-03-23T08:43:36;3.17;;;1.23;;
13012;SDS011;22580;57.670;12.006;2024-03-23T08:46:06;3.83;;;1.27;;
13012;SDS011;22580;57.670;12.006;2024-03-23T08:48:34;2.00;;;1.00;;
13012;SDS011;22580;57.670;12.006;2024-03-23T08:51:01;2.33;;;1.30;;
13012;SDS011;22580;57.670;12.006;2024-03-23T08:53:28;6.47;;;1.90;;
13012;SDS011;22580;57.670;12.006;2024-03-23T08:55:55;2.97;;;1.20;;
13012;SDS011;22580;57.670;12.006;2024-03-23T08:58:23;2.73;;;1.17;;
13012;SDS011;22580;57.670;12.006;2024-03-23T09:00:50;4.13;;;1.10;;
13012;SDS011;22580;57.670;12.006;2024-03-23T09:03:16;1.90;;;0.90;;
13012;SDS011;22580;57.670;12.006;2024-03-23T09:05:43;2.57;;;1.30;;
13012;SDS011;22580;57.670;12.006;2024-03-23T09:08:10;3.10;;;1.00;;
13012;SDS011;22580;57.670;12.006;2024-03-23T09:10:38;3.60;;;1.30;;
13012;SDS011;22580;57.670;12.006;2024-03-23T09:13:05;3.70;;;1.57;;
13012;SDS011;22580;57.670;12.006;2024-03-23T09:15:33;2.13;;;1.10;;
13012;SDS011;22580;57.670;12.006;2024-03-23T09:18:00;1.97;;;1.03;;
13012;SDS011;22580;57.670;12.006;2024-03-23T09:20:27;2.90;;;1.17;;
13012;SDS011;22580;57.670;12.006;2024-03-23T09:22:53;4.57;;;1.30;;
13012;SDS011;22580;57.670;12.006;2024-03-23T09:25:21;3.63;;;1.37;;
13012;SDS011;22580;57.670;12.006;2024-03-23T09:27:47;2.47;;;1.10;;
13012;SDS011;22580;57.670;12.006;2024-03-23T09:30:14;4.87;;;2.00;;
13012;SDS011;22580;57.670;12.006;2024-03-23T09:32:42;2.00;;;1.03;;
13012;SDS011;22580;57.670;12.006;2024-03-23T09:35:10;2.20;;;1.27;;
13012;SDS011;22580;57.670;12.006;2024-03-23T09:37:36;1.10;;;0.70;;
13012;SDS011;22580;57.670;12.006;2024-03-23T09:40:05;1.07;;;0.80;;
13012;SDS011;22580;57.670;12.006;2024-03-23T09:42:34;2.10;;;1.10;;
13012;SDS011;22580;57.670;12.006;2024-03-23T09:45:01;1.13;;;0.80;;
13012;SDS011;22580;57.670;12.006;2024-03-23T09:47:27;1.67;;;0.80;;
13012;SDS011;22580;57.670;12.006;2024-03-23T09:49:57;2.30;;;0.90;;
13012;SDS011;22580;57.670;12.006;2024-03-23T09:52:23;1.67;;;0.77;;
13012;SDS011;22580;57.670;12.006;2024-03-23T09:54:50;1.10;;;0.70;;
13012;SDS011;22580;57.670;12.006;2024-03-23T09:57:16;2.20;;;1.23;;
13012;SDS011;22580;57.670;12.006;2024-03-23T09:59:43;2.60;;;0.90;;
13012;SDS011;22580;57.670;12.006;2024-03-23T10:02:09;3.00;;;1.33;;
13012;SDS011;22580;57.670;12.006;2024-03-23T10:04:42;1.67;;;0.80;;
13012;SDS011;22580;57.670;12.006;2024-03-23T10:07:13;2.03;;;0.70;;
13012;SDS011;22580;57.670;12.006;2024-03-23T10:09:42;2.83;;;0.90;;
13012;SDS011;22580;57.670;12.006;2024-03-23T10:12:11;1.00;;;0.90;;
13012;SDS011;22580;57.670;12.006;2024-03-23T10:14:39;1.73;;;0.90;;
13012;SDS011;22580;57.670;12.006;2024-03-23T10:17:15;1.23;;;0.70;;
13012;SDS011;22580;57.670;12.006;2024-03-23T10:19:44;1.23;;;0.80;;
13012;SDS011;22580;57.670;12.006;2024-03-23T10:22:17;1.70;;;0.80;;
13012;SDS011;22580;57.670;12.006;2024-03-23T10:24:46;0.83;;;0.60;;
13012;SDS011;22580;57.670;12.006;2024-03-23T10:27:14;1.07;;;0.70;;
13012;SDS011;22580;57.670;12.006;2024-03-23T10:29:42;1.70;;;0.87;;
13012;SDS011;22580;57.670;12.006;2024-03-23T10:32:09;1.30;;;0.70;;
13012;SDS011;22580;57.670;12.006;2024-03-23T10:34:37;1.17;;;0.80;;
13012;SDS011;22580;57.670;12.006;2024-03-23T10:37:03;1.70;;;0.77;;
13012;SDS011;22580;57.670;12.006;2024-03-23T10:39:34;1.90;;;0.87;;
13012;SDS011;22580;57.670;12.006;2024-03-23T10:42:04;1.23;;;1.00;;
13012;SDS011;22580;57.670;12.006;2024-03-23T10:44:31;0.97;;;0.70;;
13012;SDS011;22580;57.670;12.006;2024-03-23T10:46:57;1.17;;;0.73;;
13012;SDS011;22580;57.670;12.006;2024-03-23T10:49:28;1.97;;;0.70;;
13012;SDS011;22580;57.670;12.006;2024-03-23T10:51:58;1.63;;;0.80;;
13012;SDS011;22580;57.670;12.006;2024-03-23T10:54:26;1.60;;;0.97;;
13012;SDS011;22580;57.670;12.006;2024-03-23T10:57:04;1.50;;;0.70;;
13012;SDS011;22580;57.670;12.006;2024-03-23T10:59:34;3.30;;;1.17;;
13012;SDS011;22580;57.670;12.006;2024-03-23T11:02:02;1.33;;;1.00;;
13012;SDS011;22580;57.670;12.006;2024-03-23T11:04:30;4.77;;;1.40;;
13012;SDS011;22580;57.670;12.006;2024-03-23T11:06:56;4.77;;;1.10;;
13012;SDS011;22580;57.670;12.006;2024-03-23T11:09:38;1.17;;;0.70;;
13012;SDS011;22580;57.670;12.006;2024-03-23T11:12:26;1.90;;;0.93;;
13012;SDS011;22580;57.670;12.006;2024-03-23T11:14:56;1.60;;;0.97;;
13012;SDS011;22580;57.670;12.006;2024-03-23T11:17:25;1.93;;;0.70;;
13012;SDS011;22580;57.670;12.006;2024-03-23T11:19:53;1.10;;;1.00;;
13012;SDS011;22580;57.670;12.006;2024-03-23T11:22:43;1.40;;;0.93;;
13012;SDS011;22580;57.670;12.006;2024-03-23T11:25:15;2.20;;;0.83;;
13012;SDS011;22580;57.670;12.006;2024-03-23T11:27:43;2.77;;;1.00;;
13012;SDS011;22580;57.670;12.006;2024-03-23T11:30:12;1.40;;;0.83;;
13012;SDS011;22580;57.670;12.006;2024-03-23T11:32:42;1.63;;;0.70;;
13012;SDS011;22580;57.670;12.006;2024-03-23T11:35:11;1.80;;;0.80;;
13012;SDS011;22580;57.670;12.006;2024-03-23T11:38:00;3.17;;;1.10;;
13012;SDS011;22580;57.670;12.006;2024-03-23T11:40:28;2.17;;;1.17;;
13012;SDS011;22580;57.670;12.006;2024-03-23T11:42:59;2.53;;;1.00;;
13012;SDS011;22580;57.670;12.006;2024-03-23T11:45:27;1.77;;;0.97;;
13012;SDS011;22580;57.670;12.006;2024-03-23T11:48:04;2.07;;;0.90;;
13012;SDS011;22580;57.670;12.006;2024-03-23T11:50:32;2.53;;;1.03;;
13012;SDS011;22580;57.670;12.006;2024-03-23T11:53:06;3.03;;;0.90;;
13012;SDS011;22580;57.670;12.006;2024-03-23T11:55:41;2.33;;;0.83;;
13012;SDS011;22580;57.670;12.006;2024-03-23T11:58:09;1.73;;;0.83;;
13012;SDS011;22580;57.670;12.006;2024-03-23T12:00:36;1.30;;;0.77;;
13012;SDS011;22580;57.670;12.006;2024-03-23T12:03:02;0.67;;;0.50;;
13012;SDS011;22580;57.670;12.006;2024-03-23T12:05:30;1.00;;;0.60;;
13012;SDS011;22580;57.670;12.006;2024-03-23T12:10:46;1.37;;;0.77;;
13012;SDS011;22580;57.670;12.006;2024-03-23T12:13:15;0.60;;;0.60;;
13012;SDS011;22580;57.670;12.006;2024-03-23T12:15:43;2.70;;;1.00;;
13012;SDS011;22580;57.670;12.006;2024-03-23T12:18:10;1.90;;;1.10;;
13012;SDS011;22580;57.670;12.006;2024-03-23T12:20:37;2.80;;;0.97;;
13012;SDS011;22580;57.670;12.006;2024-03-23T12:23:07;1.77;;;0.90;;
13012;SDS011;22580;57.670;12.006;2024-03-23T12:25:36;2.87;;;1.23;;
13012;SDS011;22580;57.670;12.006;2024-03-23T12:28:03;1.70;;;0.90;;
13012;SDS011;22580;57.670;12.006;2024-03-23T12:30:33;1.40;;;0.73;;
13012;SDS011;22580;57.670;12.006;2024-03-23T12:32:59;1.43;;;0.80;;
13012;SDS011;22580;57.670;12.006;2024-03-23T12:35:26;1.33;;;0.70;;
13012;SDS011;22580;57.670;12.006;2024-03-23T12:37:52;1.50;;;0.90;;
13012;SDS011;22580;57.670;12.006;2024-03-23T12:40:19;1.70;;;0.83;;
13012;SDS011;22580;57.670;12.006;2024-03-23T12:42:45;1.03;;;0.60;;
13012;SDS011;22580;57.670;12.006;2024-03-23T12:45:12;1.53;;;0.67;;
13012;SDS011;22580;57.670;12.006;2024-03-23T12:47:39;1.37;;;0.60;;
13012;SDS011;22580;57.670;12.006;2024-03-23T12:50:06;3.00;;;0.80;;
13012;SDS011;22580;57.670;12.006;2024-03-23T12:52:33;1.23;;;0.63;;
13012;SDS011;22580;57.670;12.006;2024-03-23T12:55:00;1.07;;;0.60;;
13012;SDS011;22580;57.670;12.006;2024-03-23T12:57:25;1.00;;;0.73;;
13012;SDS011;22580;57.670;12.006;2024-03-23T12:59:52;1.63;;;0.73;;
13012;SDS011;22580;57.670;12.006;2024-03-23T13:02:18;1.73;;;0.70;;
13012;SDS011;22580;57.670;12.006;2024-03-23T13:04:49;0.90;;;0.50;;
13012;SDS011;22580;57.670;12.006;2024-03-23T13:07:15;1.40;;;0.70;;
13012;SDS011;22580;57.670;12.006;2024-03-23T13:09:45;1.47;;;1.03;;
13012;SDS011;22580;57.670;12.006;2024-03-23T13:12:11;1.47;;;0.57;;
13012;SDS011;22580;57.670;12.006;2024-03-23T13:14:39;2.17;;;0.80;;
13012;SDS011;22580;57.670;12.006;2024-03-23T13:17:05;1.50;;;0.90;;
13012;SDS011;22580;57.670;12.006;2024-03-23T13:19:32;1.00;;;0.57;;
13012;SDS011;22580;57.670;12.006;2024-03-23T13:22:00;0.73;;;0.40;;
13012;SDS011;22580;57.670;12.006;2024-03-23T13:24:27;1.63;;;0.70;;
13012;SDS011;22580;57.670;12.006;2024-03-23T13:26:54;1.23;;;0.60;;
13012;SDS011;22580;57.670;12.006;2024-03-23T13:29:22;1.17;;;0.93;;
13012;SDS011;22580;57.670;12.006;2024-03-23T13:31:49;1.03;;;0.73;;
13012;SDS011;22580;57.670;12.006;2024-03-23T13:34:16;0.40;;;0.30;;
13012;SDS011;22580;57.670;12.006;2024-03-23T13:36:43;1.17;;;0.60;;
13012;SDS011;22580;57.670;12.006;2024-03-23T13:39:12;1.37;;;0.57;;
13012;SDS011;22580;57.670;12.006;2024-03-23T13:41:39;1.30;;;1.00;;
13012;SDS011;22580;57.670;12.006;2024-03-23T13:44:06;1.00;;;0.80;;
13012;SDS011;22580;57.670;12.006;2024-03-23T13:46:32;1.17;;;0.40;;
13012;SDS011;22580;57.670;12.006;2024-03-23T13:48:59;0.60;;;0.60;;
13012;SDS011;22580;57.670;12.006;2024-03-23T13:51:25;0.77;;;0.50;;
13012;SDS011;22580;57.670;12.006;2024-03-23T13:53:53;0.70;;;0.40;;
13012;SDS011;22580;57.670;12.006;2024-03-23T13:56:21;0.70;;;0.40;;
13012;SDS011;22580;57.670;12.006;2024-03-23T13:58:48;1.37;;;0.50;;
13012;SDS011;22580;57.670;12.006;2024-03-23T14:01:14;0.70;;;0.53;;
13012;SDS011;22580;57.670;12.006;2024-03-23T14:03:41;0.57;;;0.50;;
13012;SDS011;22580;57.670;12.006;2024-03-23T14:06:07;0.70;;;0.50;;
13012;SDS011;22580;57.670;12.006;2024-03-23T14:08:34;0.87;;;0.50;;
13012;SDS011;22580;57.670;12.006;2024-03-23T14:11:01;0.33;;;0.27;;
13012;SDS011;22580;57.670;12.006;2024-03-23T14:13:31;0.63;;;0.50;;
13012;SDS011;22580;57.670;12.006;2024-03-23T14:15:57;1.63;;;0.52;;
13012;SDS011;22580;57.670;12.006;2024-03-23T14:18:24;0.63;;;0.50;;
13012;SDS011;22580;57.670;12.006;2024-03-23T14:20:51;1.13;;;0.50;;
13012;SDS011;22580;57.670;12.006;2024-03-23T14:23:19;0.30;;;0.30;;
13012;SDS011;22580;57.670;12.006;2024-03-23T14:25:45;0.88;;;0.52;;
13012;SDS011;22580;57.670;12.006;2024-03-23T14:28:11;0.43;;;0.35;;
13012;SDS011;22580;57.670;12.006;2024-03-23T14:30:41;0.32;;;0.30;;
13012;SDS011;22580;57.670;12.006;2024-03-23T14:33:08;0.68;;;0.40;;
13012;SDS011;22580;57.670;12.006;2024-03-23T14:35:34;0.55;;;0.30;;
13012;SDS011;22580;57.670;12.006;2024-03-23T14:38:01;0.22;;;0.20;;
13012;SDS011;22580;57.670;12.006;2024-03-23T14:40:27;0.17;;;0.17;;
13012;SDS011;22580;57.670;12.006;2024-03-23T14:42:55;0.30;;;0.20;;
13012;SDS011;22580;57.670;12.006;2024-03-23T14:45:21;0.40;;;0.40;;
13012;SDS011;22580;57.670;12.006;2024-03-23T14:47:50;0.30;;;0.28;;
13012;SDS011;22580;57.670;12.006;2024-03-23T14:50:16;0.45;;;0.30;;
13012;SDS011;22580;57.670;12.006;2024-03-23T14:52:44;0.30;;;0.30;;
13012;SDS011;22580;57.670;12.006;2024-03-23T14:55:10;1.10;;;0.50;;
13012;SDS011;22580;57.670;12.006;2024-03-23T14:57:37;0.40;;;0.35;;
13012;SDS011;22580;57.670;12.006;2024-03-23T15:00:05;0.85;;;0.30;;
13012;SDS011;22580;57.670;12.006;2024-03-23T15:02:35;0.40;;;0.40;;
13012;SDS011;22580;57.670;12.006;2024-03-23T15:05:03;0.73;;;0.30;;
13012;SDS011;22580;57.670;12.006;2024-03-23T15:07:30;0.82;;;0.52;;
13012;SDS011;22580;57.670;12.006;2024-03-23T15:09:56;2.15;;;0.73;;
13012;SDS011;22580;57.670;12.006;2024-03-23T15:12:23;0.75;;;0.60;;
13012;SDS011;22580;57.670;12.006;2024-03-23T15:14:49;1.13;;;0.40;;
13012;SDS011;22580;57.670;12.006;2024-03-23T15:17:15;0.47;;;0.43;;
13012;SDS011;22580;57.670;12.006;2024-03-23T15:19:41;0.90;;;0.47;;
13012;SDS011;22580;57.670;12.006;2024-03-23T15:22:10;1.43;;;0.50;;
13012;SDS011;22580;57.670;12.006;2024-03-23T15:24:36;0.83;;;0.70;;
13012;SDS011;22580;57.670;12.006;2024-03-23T15:27:03;1.07;;;0.70;;
13012;SDS011;22580;57.670;12.006;2024-03-23T15:29:29;1.17;;;0.40;;